Foxborough, Massachusetts
Current Conditions -  °F | °C
As of 7:53 PM on Wednesday 26 Nov 2014 (Local Time) from KOWD Reporting Station
Light Rain Light Rain  
Wind Chill: 31°   Ceiling: 900
Heat Index: 38°   Visibility: 8mi
Dew Point: 35°   Wind: 9mph
Humidity: 89%   Direction: 30°NNE
Pressure: 29.73"   Gusts: 26mph
Location:  42.0631°N, 71.2456°W
Report Text: KOWD 270053Z 03008G23KT 8SM -RA OVC009 03/02 A2973 RMK AO2 CIG 007V012 SLP068 P0008 T00330017 $
Loading
Personal Weather Stations






























Interactive Weather Map New forecast layout! Learn more

10-Day Weather Forecast

Advertisements
Track Severe Weather on mobile